KBRL/BRL METAR and TAF weather

Enter ICAO airport designator
Station Type Date Time Source
KBRL METAR 2019/10/19 06:53 UTC NOAA

KBRL 190653Z AUTO 18010KT 10SM FEW120 12/05 A2981 RMK AO2 SLP092 T01170050


Station Type Date Time Source
KBRL Decoded METAR 2019/10/19 06:53 UTC NOAA

BURLINGTON REGIONAL AIRPORT, IA, United States (KBRL) 40-46N 91-08W 211M
Oct 19, 2019 - 02:53 AM EDT / 2019.10.19 0653 UTC
Wind: from the S (180 degrees) at 12 MPH (10 KT):0
Visibility: 10 mile(s):0
Sky conditions: mostly clear
Temperature: 53.1 F (11.7 C)
Dew Point: 41.0 F (5.0 C)
Relative Humidity: 63%
Pressure (altimeter): 29.81 in. Hg (1009 hPa)
ob: KBRL 190653Z AUTO 18010KT 10SM FEW120 12/05 A2981 RMK AO2 SLP092 T01170050
cycle: 7

Station Type Date Time Source
KBRL TAF 2019/10/19 06:57 UTC NOAA

TAF KBRL 190554Z 1906/2006 18010G18KT P6SM SCT100
FM190800 16012KT P6SM SCT080 WS015/19040KT
FM191400 20008KT P6SM SCT030 BKN080
FM191900 24006KT 6SM -SHRA OVC035
FM200000 VRB03KT P6SM BKN030

Example: see airport list